Deadwood, SD (57732)

2:19 AM MST on February 06, 2016 (GMT -0700)
Dumont Trailhead | | Change Station
CLOSE
Current Station
Personal Weather Station
Location: Lead, SD
Elevation: 6070 ft
Nearby Weather Stations
Active Advisory: High Wind Warning

Elev 6070 ft 44.23 °N, 103.78 °W | Updated 4 minutes ago

Clear
Clear
27.7 °F
Feels Like 22 °F
N
5.0
Wind Variable Wind from NW
Gusts 5.0 mph

Today
High -- | Low -- °F
--% Chance of Precip.
Yesterday
High -- | Low -- °F
Precip. -- in
Pressure 30.06 in
Visibility 10.0 miles
Clouds Clear
Windchill 22 °F
Dew Point 15 °F
Humidity 59%
Rainfall 0.00 in
Snow Depth Not available.
7:07 AM 5:10 PM
Waning Crescent, 6% visible
METAR KSPF 060855Z AUTO 24015G20KT 10SM CLR 03/M08 A3006 RMK AO2
Pressure 30.06 in
Visibility 10.0 miles
Clouds Clear
Windchill 22 °F
Dew Point 15 °F
Humidity 59%
Rainfall 0.00 in
Snow Depth Not available.
7:07 AM 5:10 PM
Waning Crescent, 6% visible
METAR KSPF 060855Z AUTO 24015G20KT 10SM CLR 03/M08 A3006 RMK AO2

10-Day Weather Forecast

Almanac

Astronomy

Feb. 06, 2016 Rise Set
Actual Time
Civil Twilight
Nautical Twilight
Astronomical Twilight
Moon
Length of Visible Light
Length of Day
Tomorrow will be .
, % of the Moon is Illuminated

Today's Extremes

State Highs State Lows

Community

WunderPhotos

Upload Photos

1,890,933 photos uploaded!

WunderBlog® & News

Nearby

Air Quality

  Air Quality AQ Index Pollutant
Not available.

Snow Depth

Station Depth Elevation

Earthquake Activity

City Distance Mag. Time & Date
Minimum magnitude displayed is 2.5.

Coastal Water Temperatures

Place Temperature

Stations

Nearby Weather Stations

Station Location Temp. Windchill Dew Point Humidity Wind Precip. Elev Updated Type
                   

Watches & Warnings

High Wind Warning
Issued: 2:15 AM MST Feb. 6, 2016 – National Weather Service

... High Wind Warning in effect from 11 PM this evening to 8 PM
MST Sunday...

The National Weather Service in Rapid City has issued a High Wind
Warning... which is in effect from 11 PM this evening to 8 PM MST
Sunday. The high wind watch is no longer in effect.

* Timing... late tonight through Sunday evening.

* Winds... northwest 25 to 35 mph with gusts up to 60 mph.

* Impacts... the high winds may lead to several dead trees
falling down on roads and trails.

Precautionary/preparedness actions...

A High Wind Warning means 40 mph winds... or gusts over 60 mph...
are expected or occurring.